sim
Sign-in with your pilot id or email,
or register
Callsign
Passwort

Schedule Details

Flight Number: DLH1717 (2)
Departure: Split Airport (LDSP) at 17:00
Arrival: Munich Airport (EDDM) at 18:25
Route: Lufthansa Passenger Schedule. Enter filed route here before submitting Pirep.

Weather Information
Getting current METAR information for LDSP 221900Z 10007KT 070V130 9999 BKN035 23/19 Q1014 NOSIG
Getting current METAR information for EDDM 221920Z VRB02KT CAVOK 17/15 Q1010 NOSIG

Schedule Frequency

Route Map